createdAt,value
2019-01-05T00:03:00.989Z,18.83
2019-01-05T00:08:30.609Z,24.83
2019-01-05T00:14:05.444Z,27.87
2019-01-05T00:19:27.840Z,26.60
2019-01-05T00:24:46.650Z,22.83
2019-01-05T00:30:11.401Z,26.07
2019-01-05T00:35:41.961Z,14.77
2019-01-05T00:41:05.260Z,28.23
2019-01-05T00:46:27.301Z,17.37
2019-01-05T00:51:51.715Z,19.53
2019-01-05T00:57:30.308Z,20.33
2019-01-05T01:03:01.408Z,16.70
2019-01-05T01:08:23.975Z,11.57
2019-01-05T01:13:58.145Z,14.97
2019-01-05T01:19:23.558Z,24.30
2019-01-05T01:24:46.311Z,25.23
2019-01-05T01:30:23.313Z,24.77
2019-01-05T01:35:48.540Z,15.20
2019-01-05T01:41:09.878Z,16.43
2019-01-05T01:46:32.955Z,17.90
2019-01-05T01:51:58.280Z,15.83
2019-01-05T01:57:25.134Z,14.80
2019-01-05T02:02:46.382Z,35.40
2019-01-05T02:08:11.081Z,19.90
2019-01-05T02:13:54.844Z,29.80
2019-01-05T02:19:23.648Z,29.60
2019-01-05T02:25:22.589Z,32.93
2019-01-05T02:31:49.968Z,26.50
2019-01-05T02:37:43.153Z,29.20
2019-01-05T02:43:42.361Z,35.03
2019-01-05T02:49:44.873Z,25.67
2019-01-05T02:55:49.204Z,9.37
2019-01-05T03:02:09.632Z,14.23
2019-01-05T03:07:54.527Z,16.13
2019-01-05T03:13:55.195Z,18.80
2019-01-05T03:19:46.011Z,17.73
2019-01-05T03:25:50.342Z,10.60
2019-01-05T03:32:02.575Z,19.80
2019-01-05T03:37:59.234Z,10.37
2019-01-05T03:43:50.052Z,7.40
2019-01-05T03:49:52.960Z,6.70
2019-01-05T03:55:34.473Z,4.93
2019-01-05T04:01:49.681Z,11.53
2019-01-05T04:07:56.473Z,6.83
2019-01-05T04:14:06.242Z,9.93
2019-01-05T04:20:26.777Z,17.27
2019-01-05T04:26:15.336Z,22.50
2019-01-05T04:31:59.413Z,22.57
2019-01-05T04:37:54.236Z,20.50
2019-01-05T04:43:59.576Z,16.90
2019-01-05T04:50:24.843Z,11.43
2019-01-05T04:56:44.128Z,19.43
2019-01-05T05:02:36.342Z,16.23
2019-01-05T05:08:32.331Z,12.97
2019-01-05T05:14:48.345Z,10.83
2019-01-05T05:20:50.962Z,22.77
2019-01-05T05:26:33.626Z,26.83
2019-01-05T05:32:36.812Z,17.93
2019-01-05T05:38:37.261Z,30.10
2019-01-05T05:44:44.467Z,27.37
2019-01-05T05:50:43.282Z,20.80
2019-01-05T05:56:42.917Z,17.70
2019-01-05T06:02:22.885Z,26.30
2019-01-05T06:08:26.001Z,21.30
2019-01-05T06:14:09.047Z,27.50
2019-01-05T06:20:14.685Z,23.07
2019-01-05T06:26:25.719Z,24.60
2019-01-05T06:32:36.647Z,26.70
2019-01-05T06:38:39.380Z,35.13
2019-01-05T06:44:59.349Z,28.07
2019-01-05T06:50:49.795Z,20.63
2019-01-05T06:56:38.849Z,21.10
2019-01-05T07:02:32.124Z,27.43
2019-01-05T07:09:01.493Z,33.17
2019-01-05T07:15:16.745Z,29.33
2019-01-05T07:21:33.270Z,18.97
2019-01-05T07:27:33.825Z,35.97
2019-01-05T07:33:31.423Z,23.93
2019-01-05T07:39:31.144Z,22.20
2019-01-05T07:45:14.706Z,22.53
2019-01-05T07:51:25.398Z,22.70
2019-01-05T07:57:46.031Z,31.60
2019-01-05T08:03:53.257Z,30.67
2019-01-05T08:09:47.641Z,30.95
2019-01-05T08:16:04.284Z,22.80
2019-01-05T08:22:14.666Z,17.87
2019-01-05T08:28:16.597Z,31.97
2019-01-05T08:34:26.929Z,25.93
2019-01-05T08:40:26.569Z,33.63
2019-01-05T08:46:28.158Z,22.33
2019-01-05T08:52:15.824Z,28.53
2019-01-05T08:58:28.354Z,19.87
2019-01-05T09:04:35.089Z,20.67
2019-01-05T09:10:30.687Z,23.60
2019-01-05T09:16:26.543Z,24.83
2019-01-05T09:22:16.321Z,22.00
2019-01-05T09:28:16.064Z,36.47
2019-01-05T09:34:30.956Z,24.53
2019-01-05T09:40:25.159Z,20.47
2019-01-05T09:46:34.209Z,22.10
2019-01-05T09:52:29.956Z,21.47
2019-01-05T09:58:36.758Z,29.60
2019-01-05T10:04:46.416Z,28.47
2019-01-05T10:10:33.422Z,28.33
2019-01-05T10:16:40.470Z,18.90
2019-01-05T10:22:44.706Z,24.27
2019-01-05T10:28:34.512Z,25.23
2019-01-05T10:34:45.774Z,23.83
2019-01-05T10:40:47.083Z,17.23
2019-01-05T10:46:40.369Z,18.87
2019-01-05T10:52:48.608Z,29.30
2019-01-05T10:58:52.228Z,18.97
2019-01-05T11:04:57.090Z,14.33
2019-01-05T11:10:59.580Z,26.23
2019-01-05T11:17:18.986Z,24.30
2019-01-05T11:23:20.767Z,20.70
2019-01-05T11:29:26.501Z,16.03
2019-01-05T11:35:34.469Z,28.23
2019-01-05T11:41:27.509Z,15.53
2019-01-05T11:47:41.792Z,14.27
2019-01-05T11:53:28.002Z,17.83
2019-01-05T11:59:30.673Z,32.67
2019-01-05T12:05:35.001Z,25.70
2019-01-05T12:11:59.922Z,17.57
2019-01-05T12:17:52.080Z,22.33
2019-01-05T12:23:43.930Z,13.53
2019-01-05T12:29:58.100Z,19.37
2019-01-05T12:36:06.048Z,19.57
2019-01-05T12:42:08.528Z,12.13
2019-01-05T12:48:21.782Z,26.50
2019-01-05T12:54:20.271Z,15.60
2019-01-05T13:00:19.505Z,10.50
2019-01-05T13:06:16.996Z,12.57
2019-01-05T13:12:01.571Z,11.53
2019-01-05T13:18:16.876Z,7.80
2019-01-05T13:24:15.372Z,14.30
2019-01-05T13:30:09.862Z,12.53
2019-01-05T13:36:25.597Z,14.20
2019-01-05T13:42:19.559Z,22.53
2019-01-05T13:48:03.561Z,12.87
2019-01-05T13:54:25.632Z,12.37
2019-01-05T13:59:59.994Z,12.93
2019-01-05T14:05:20.915Z,13.60
2019-01-05T14:10:54.417Z,7.33
2019-01-05T14:16:12.981Z,9.90
2019-01-05T14:21:29.096Z,16.50
2019-01-05T14:26:50.136Z,13.83
2019-01-05T14:32:25.164Z,13.00
2019-01-05T14:37:45.596Z,12.10
2019-01-05T14:43:06.824Z,9.30
2019-01-05T14:48:47.116Z,12.37
2019-01-05T14:54:07.545Z,9.50
2019-01-05T14:59:31.315Z,15.47
2019-01-05T15:04:53.670Z,6.80
2019-01-05T15:10:21.859Z,13.33
2019-01-05T15:15:52.478Z,16.83
2019-01-05T15:21:14.899Z,19.80
2019-01-05T15:26:48.515Z,9.03
2019-01-05T15:32:08.897Z,23.73
2019-01-05T15:37:42.637Z,20.50
2019-01-05T15:43:10.953Z,25.83
2019-01-05T15:48:45.289Z,18.27
2019-01-05T15:54:05.835Z,8.23
2019-01-05T15:59:31.023Z,9.17
2019-01-05T16:04:59.009Z,14.40
2019-01-05T16:10:27.660Z,12.60
2019-01-05T16:16:05.347Z,11.33
2019-01-05T16:21:25.961Z,14.60
2019-01-05T16:26:51.517Z,18.03
2019-01-05T16:32:32.284Z,15.47
2019-01-05T16:38:00.680Z,13.83
2019-01-05T16:43:35.239Z,9.70
2019-01-05T16:48:56.366Z,13.73
2019-01-05T16:54:17.294Z,10.80
2019-01-05T16:59:33.296Z,14.30
2019-01-05T17:04:55.094Z,11.00
2019-01-05T17:10:17.540Z,11.50
2019-01-05T17:15:51.568Z,7.90
2019-01-05T17:21:09.593Z,15.50
2019-01-05T17:26:29.743Z,10.47
2019-01-05T17:31:53.162Z,6.60
2019-01-05T17:37:18.215Z,10.37
2019-01-05T17:42:33.396Z,5.27
2019-01-05T17:47:54.362Z,5.13
2019-01-05T17:53:21.670Z,11.43
2019-01-05T17:58:47.055Z,9.50
2019-01-05T18:04:04.079Z,6.10
2019-01-05T18:09:26.663Z,8.83
2019-01-05T18:14:50.344Z,4.13
2019-01-05T18:20:06.275Z,11.63
2019-01-05T18:25:28.391Z,6.00
2019-01-05T18:30:48.906Z,7.70
2019-01-05T18:36:23.129Z,3.50
2019-01-05T18:42:00.493Z,5.20
2019-01-05T18:47:21.916Z,6.67
2019-01-05T18:52:59.201Z,5.60
2019-01-05T18:58:20.464Z,15.20
2019-01-05T19:03:35.327Z,2.67
2019-01-05T19:08:56.035Z,3.03
2019-01-05T19:14:20.774Z,6.57
2019-01-05T19:19:54.977Z,8.23
2019-01-05T19:25:23.407Z,7.50
2019-01-05T19:30:48.137Z,6.83
2019-01-05T19:36:22.504Z,13.90
2019-01-05T19:41:44.032Z,9.60
2019-01-05T19:47:05.540Z,11.60
2019-01-05T19:52:42.822Z,6.50
2019-01-05T19:58:04.065Z,4.80
2019-01-05T20:03:25.220Z,4.87
2019-01-05T20:08:46.332Z,21.30
2019-01-05T20:14:20.284Z,18.13
2019-01-05T20:19:42.464Z,13.00
2019-01-05T20:25:19.626Z,13.43
2019-01-05T20:30:41.671Z,13.20
2019-01-05T20:36:09.694Z,18.23
2019-01-05T20:41:30.898Z,33.47
2019-01-05T20:46:56.340Z,7.60
2019-01-05T20:52:19.836Z,24.40
2019-01-05T20:57:47.501Z,22.23
2019-01-05T21:03:24.977Z,24.37
2019-01-05T21:08:39.778Z,17.57
2019-01-05T21:14:01.220Z,40.60
2019-01-05T21:19:27.019Z,31.27
2019-01-05T21:24:48.408Z,18.73
2019-01-05T21:30:23.043Z,22.73
2019-01-05T21:35:45.614Z,28.47
2019-01-05T21:41:06.591Z,24.40
2019-01-05T21:46:33.513Z,19.30
2019-01-05T21:52:10.919Z,128.70
2019-01-05T21:57:33.584Z,127.20
2019-01-05T22:02:50.797Z,53.23
2019-01-05T22:08:12.965Z,42.90
2019-01-05T22:13:32.477Z,37.77
2019-01-05T22:19:00.655Z,44.03
2019-01-05T22:24:24.914Z,39.87
2019-01-05T22:29:44.511Z,33.37
2019-01-05T22:35:07.576Z,38.13
2019-01-05T22:40:40.117Z,107.97
2019-01-05T22:46:17.742Z,118.73
2019-01-05T22:51:38.560Z,61.90
2019-01-05T22:57:03.242Z,51.13
2019-01-05T23:02:24.203Z,38.27
2019-01-05T23:07:45.023Z,35.60
2019-01-05T23:13:08.709Z,33.80
2019-01-05T23:18:29.169Z,51.63
2019-01-05T23:23:58.869Z,46.87
2019-01-05T23:29:33.213Z,103.10
2019-01-05T23:34:49.719Z,41.53
2019-01-05T23:40:18.031Z,32.37
2019-01-05T23:45:43.035Z,37.60
2019-01-05T23:51:14.990Z,23.73
2019-01-05T23:56:42.819Z,25.90
